KTOA/TOA METAR and TAF weather

Enter ICAO airport designator
Station Type Date Time Source
KTOA METAR 2020/09/25 00:51 UTC NOAA

KTOA 250051Z 28012KT 9SM FEW005 21/20 A2986 RMK LAST


Station Type Date Time Source
KTOA Decoded METAR 2020/09/25 00:51 UTC NOAA

Torrance, Zamperini Field Airport, CA, United States (KTOA) 33-48N 118-20W
Sep 24, 2020 - 08:51 PM EDT / 2020.09.25 0051 UTC
Wind: from the W (280 degrees) at 14 MPH (12 KT):0
Visibility: 9 mile(s):0
Sky conditions: mostly clear
Temperature: 69 F (21 C)
Dew Point: 68 F (20 C)
Relative Humidity: 94%
Pressure (altimeter): 29.86 in. Hg (1011 hPa)
ob: KTOA 250051Z 28012KT 9SM FEW005 21/20 A2986 RMK LAST
cycle: 1

Station Type Date Time Source
KTOA TAF UTC NOAA

Error!

Example: see airport list